createdAt,value
2023-01-03T05:00:18.030Z,8.06
2023-01-03T05:02:49.602Z,8.09
2023-01-03T05:05:18.791Z,8.11
2023-01-03T05:07:47.750Z,8.14
2023-01-03T05:10:16.417Z,8.15
2023-01-03T05:13:00.103Z,8.15
2023-01-03T05:15:37.787Z,8.15
2023-01-03T05:18:08.160Z,8.13
2023-01-03T05:20:58.144Z,8.14
2023-01-03T05:23:45.759Z,8.14
2023-01-03T05:26:16.507Z,8.13
2023-01-03T05:28:48.592Z,8.13
2023-01-03T05:31:16.914Z,8.10
2023-01-03T05:33:45.964Z,8.08
2023-01-03T05:36:16.600Z,8.10
2023-01-03T05:38:46.122Z,8.12
2023-01-03T05:41:35.697Z,8.15
2023-01-03T05:44:05.089Z,8.20
2023-01-03T05:46:34.436Z,8.23
2023-01-03T05:49:03.844Z,8.22
2023-01-03T05:51:32.880Z,8.19
2023-01-03T05:54:02.307Z,8.17
2023-01-03T05:56:32.692Z,8.17
2023-01-03T05:59:01.385Z,8.17
2023-01-03T06:01:30.139Z,8.15
2023-01-03T06:03:58.881Z,8.13
2023-01-03T06:06:27.080Z,8.16
2023-01-03T06:08:56.054Z,8.17
2023-01-03T06:11:25.123Z,8.19
2023-01-03T06:13:54.652Z,8.20
2023-01-03T06:16:50.282Z,8.22
2023-01-03T06:19:19.637Z,8.23
2023-01-03T06:21:48.923Z,8.23
2023-01-03T06:24:18.307Z,8.22
2023-01-03T06:26:47.785Z,8.21
2023-01-03T06:29:19.561Z,8.19
2023-01-03T06:31:48.675Z,8.15
2023-01-03T06:34:17.561Z,8.12
2023-01-03T06:36:46.703Z,8.11
2023-01-03T06:39:15.188Z,8.09
2023-01-03T06:41:43.985Z,8.04
2023-01-03T06:44:13.096Z,8.01
2023-01-03T06:47:00.715Z,7.97
2023-01-03T06:50:08.356Z,7.91
2023-01-03T06:52:56.221Z,7.85
2023-01-03T06:55:25.578Z,7.79
2023-01-03T06:57:54.901Z,7.72
2023-01-03T07:00:24.314Z,7.67
2023-01-03T07:02:54.203Z,7.65
2023-01-03T07:05:22.989Z,7.62
2023-01-03T07:07:52.309Z,7.63
2023-01-03T07:10:21.530Z,7.64
2023-01-03T07:13:09.857Z,7.66
2023-01-03T07:15:44.358Z,7.69
2023-01-03T07:18:14.101Z,7.69
2023-01-03T07:20:44.269Z,7.68
2023-01-03T07:23:16.840Z,7.68
2023-01-03T07:25:48.223Z,7.66
2023-01-03T07:28:17.814Z,7.65
2023-01-03T07:30:47.054Z,7.64
2023-01-03T07:33:17.575Z,7.62
2023-01-03T07:35:46.582Z,7.61
2023-01-03T07:38:15.239Z,7.60
2023-01-03T07:40:45.202Z,7.58
2023-01-03T07:43:32.848Z,7.53
2023-01-03T07:46:12.070Z,7.45
2023-01-03T07:48:42.161Z,7.37
2023-01-03T07:51:15.933Z,7.32
2023-01-03T07:53:45.786Z,7.25
2023-01-03T07:56:17.239Z,7.17
2023-01-03T07:58:47.990Z,7.10
2023-01-03T08:01:19.706Z,7.02
2023-01-03T08:03:49.187Z,6.96
2023-01-03T08:06:22.881Z,6.94
2023-01-03T08:09:11.100Z,6.94
2023-01-03T08:11:59.308Z,6.93
2023-01-03T08:14:29.144Z,6.90
2023-01-03T08:16:57.658Z,6.85
2023-01-03T08:19:27.108Z,6.81
2023-01-03T08:21:55.695Z,6.79
2023-01-03T08:24:24.019Z,6.77
2023-01-03T08:26:52.293Z,6.73
2023-01-03T08:29:20.813Z,6.68
2023-01-03T08:31:55.923Z,6.65
2023-01-03T08:34:30.558Z,6.60
2023-01-03T08:37:03.542Z,6.58
2023-01-03T08:39:43.702Z,6.58
2023-01-03T08:42:15.857Z,6.59
2023-01-03T08:44:45.391Z,6.59
2023-01-03T08:47:15.692Z,6.59
2023-01-03T08:49:44.065Z,6.58
2023-01-03T08:52:12.221Z,6.57
2023-01-03T08:54:41.067Z,6.58
2023-01-03T08:57:09.682Z,6.58
2023-01-03T08:59:37.890Z,6.62
2023-01-03T09:02:06.957Z,6.66
2023-01-03T09:04:35.272Z,6.68
2023-01-03T09:07:03.366Z,6.71
2023-01-03T09:09:32.035Z,6.73
2023-01-03T09:12:00.269Z,6.77
2023-01-03T09:14:30.751Z,6.79
2023-01-03T09:16:59.155Z,6.82
2023-01-03T09:19:27.743Z,6.86
2023-01-03T09:21:56.077Z,6.90
2023-01-03T09:24:24.213Z,6.93
2023-01-03T09:26:55.290Z,6.97
2023-01-03T09:29:24.347Z,7.03
2023-01-03T09:31:53.448Z,7.06
2023-01-03T09:34:22.398Z,7.10
2023-01-03T09:36:50.610Z,7.12
2023-01-03T09:39:19.001Z,7.15
2023-01-03T09:42:07.827Z,7.16
2023-01-03T09:44:36.082Z,7.14
2023-01-03T09:47:05.225Z,7.10
2023-01-03T09:49:51.880Z,7.05
2023-01-03T09:52:50.870Z,7.00
2023-01-03T09:55:46.066Z,6.97
2023-01-03T09:58:54.726Z,6.97
2023-01-03T10:01:56.464Z,6.97
2023-01-03T10:04:49.685Z,6.94
2023-01-03T10:07:24.747Z,6.92
2023-01-03T10:10:14.800Z,6.95
2023-01-03T10:13:20.345Z,7.01
2023-01-03T10:16:08.420Z,7.07
2023-01-03T10:19:02.346Z,7.12
2023-01-03T10:21:46.341Z,7.16
2023-01-03T10:24:21.502Z,7.17
2023-01-03T10:27:18.610Z,7.20
2023-01-03T10:29:54.557Z,7.22
2023-01-03T10:32:49.988Z,7.21
2023-01-03T10:35:24.955Z,7.21
2023-01-03T10:37:55.886Z,7.21
2023-01-03T10:40:39.815Z,7.17
2023-01-03T10:43:16.719Z,7.14
2023-01-03T10:46:07.740Z,7.13
2023-01-03T10:49:17.005Z,7.10
2023-01-03T10:51:43.075Z,7.09
2023-01-03T10:54:36.841Z,7.12
2023-01-03T10:57:05.786Z,7.10
2023-01-03T10:59:37.874Z,7.10
2023-01-03T11:02:09.511Z,7.08
2023-01-03T11:04:39.113Z,7.07
2023-01-03T11:07:12.591Z,7.06
2023-01-03T11:09:48.848Z,7.05
2023-01-03T11:12:40.717Z,7.02
2023-01-03T11:15:38.195Z,7.03
2023-01-03T11:18:23.485Z,7.11
2023-01-03T11:20:55.682Z,7.18
2023-01-03T11:24:06.421Z,7.22
2023-01-03T11:27:01.079Z,7.27
2023-01-03T11:29:56.724Z,7.32
2023-01-03T11:32:52.562Z,7.37
2023-01-03T11:35:54.771Z,7.36
2023-01-03T11:38:46.666Z,7.33
2023-01-03T11:41:36.489Z,7.31
2023-01-03T11:44:14.250Z,7.27
2023-01-03T11:47:10.243Z,7.24
2023-01-03T11:50:03.937Z,7.20
2023-01-03T11:52:48.269Z,7.16
2023-01-03T11:55:51.303Z,7.13
2023-01-03T11:58:37.706Z,7.08
2023-01-03T12:01:18.904Z,7.06
2023-01-03T12:04:14.075Z,7.04
2023-01-03T12:07:37.469Z,7.01
2023-01-03T12:10:33.594Z,6.97
2023-01-03T12:13:29.099Z,6.98
2023-01-03T12:16:16.525Z,6.98
2023-01-03T12:18:56.047Z,6.99
2023-01-03T12:21:40.396Z,7.00
2023-01-03T12:24:39.672Z,7.01
2023-01-03T12:27:17.785Z,7.04
2023-01-03T12:29:59.649Z,7.06
2023-01-03T12:32:47.650Z,7.10
2023-01-03T12:35:39.654Z,7.10
2023-01-03T12:38:10.673Z,7.10
2023-01-03T12:41:02.584Z,7.08
2023-01-03T12:43:43.233Z,7.07
2023-01-03T12:46:24.352Z,7.08
2023-01-03T12:49:16.175Z,7.11
2023-01-03T12:51:45.462Z,7.14
2023-01-03T12:54:14.570Z,7.15
2023-01-03T12:56:56.145Z,7.17
2023-01-03T12:59:51.667Z,7.19
2023-01-03T13:02:48.370Z,7.22
2023-01-03T13:05:20.607Z,7.23
2023-01-03T13:08:19.815Z,7.20
2023-01-03T13:10:53.105Z,7.19
2023-01-03T13:13:22.714Z,7.19
2023-01-03T13:15:53.793Z,7.18
2023-01-03T13:18:23.031Z,7.17
2023-01-03T13:20:54.217Z,7.15
2023-01-03T13:23:29.405Z,7.12
2023-01-03T13:26:21.443Z,7.10
2023-01-03T13:28:52.287Z,7.09
2023-01-03T13:31:22.101Z,7.07
2023-01-03T13:34:11.169Z,7.06
2023-01-03T13:37:08.243Z,7.07
2023-01-03T13:39:52.840Z,7.09
2023-01-03T13:42:32.174Z,7.10
2023-01-03T13:45:16.661Z,7.12
2023-01-03T13:47:48.012Z,7.12
2023-01-03T13:50:30.577Z,7.14
2023-01-03T13:53:12.570Z,7.17
2023-01-03T13:55:54.589Z,7.18
2023-01-03T13:58:53.883Z,7.19
2023-01-03T14:01:41.908Z,7.17
2023-01-03T14:04:28.253Z,7.14
2023-01-03T14:07:16.133Z,7.12
2023-01-03T14:09:51.134Z,7.08
2023-01-03T14:12:52.727Z,7.06
2023-01-03T14:15:26.939Z,6.98
2023-01-03T14:18:00.448Z,6.92
2023-01-03T14:20:34.219Z,6.87
2023-01-03T14:23:23.797Z,6.84
2023-01-03T14:25:55.412Z,6.79
2023-01-03T14:28:26.220Z,6.75
2023-01-03T14:31:07.197Z,6.72
2023-01-03T14:33:43.094Z,6.66
2023-01-03T14:36:16.849Z,6.61
2023-01-03T14:38:54.219Z,6.58
2023-01-03T14:41:31.245Z,6.55
2023-01-03T14:44:19.718Z,6.55
2023-01-03T14:47:07.248Z,6.57
2023-01-03T14:49:47.326Z,6.60
2023-01-03T14:52:37.994Z,6.63
2023-01-03T14:55:09.852Z,6.65
2023-01-03T14:57:40.216Z,6.67
2023-01-03T15:00:16.446Z,6.67
2023-01-03T15:02:46.612Z,6.68
2023-01-03T15:05:51.869Z,6.68
2023-01-03T15:08:32.117Z,6.68
2023-01-03T15:11:08.490Z,6.67
2023-01-03T15:13:39.110Z,6.66
2023-01-03T15:16:31.187Z,6.63
2023-01-03T15:19:20.887Z,6.60
2023-01-03T15:21:49.424Z,6.58
2023-01-03T15:24:23.554Z,6.57
2023-01-03T15:26:53.858Z,6.55
2023-01-03T15:29:24.747Z,6.51
2023-01-03T15:31:55.821Z,6.46
2023-01-03T15:34:37.116Z,6.40
2023-01-03T15:37:14.263Z,6.34
2023-01-03T15:39:53.885Z,6.27
2023-01-03T15:42:47.784Z,6.18
2023-01-03T15:45:25.255Z,6.10
2023-01-03T15:47:58.608Z,6.04
2023-01-03T15:50:51.453Z,5.99
2023-01-03T15:53:22.858Z,5.95
2023-01-03T15:55:59.620Z,5.93
2023-01-03T15:58:29.883Z,5.94
2023-01-03T16:00:59.874Z,5.96
2023-01-03T16:03:31.495Z,6.00
2023-01-03T16:06:00.135Z,6.05
2023-01-03T16:08:30.247Z,6.10
2023-01-03T16:11:04.482Z,6.14
2023-01-03T16:13:42.415Z,6.17
2023-01-03T16:16:12.514Z,6.19
2023-01-03T16:18:52.291Z,6.20
2023-01-03T16:21:22.284Z,6.20
2023-01-03T16:23:51.582Z,6.20
2023-01-03T16:26:21.084Z,6.20
2023-01-03T16:28:50.062Z,6.17
2023-01-03T16:31:26.673Z,6.12
2023-01-03T16:33:56.081Z,6.07
2023-01-03T16:36:40.160Z,6.01
2023-01-03T16:39:14.542Z,5.94
2023-01-03T16:41:44.575Z,5.90
2023-01-03T16:44:13.563Z,5.85
2023-01-03T16:46:41.806Z,5.79
2023-01-03T16:49:11.470Z,5.73
2023-01-03T16:51:46.764Z,5.66
2023-01-03T16:54:21.449Z,5.60
2023-01-03T16:56:50.685Z,5.55
2023-01-03T16:59:21.839Z,5.51
2023-01-03T17:01:50.574Z,5.48
2023-01-03T17:04:19.160Z,5.46
2023-01-03T17:06:47.816Z,5.45
2023-01-03T17:09:23.593Z,5.45
2023-01-03T17:11:55.392Z,5.44
2023-01-03T17:14:24.193Z,5.42
2023-01-03T17:16:52.999Z,5.40
2023-01-03T17:20:02.880Z,5.40
2023-01-03T17:22:21.432Z,5.40
2023-01-03T17:24:52.604Z,5.39
2023-01-03T17:27:31.864Z,5.38
2023-01-03T17:30:04.572Z,5.36
2023-01-03T17:32:34.324Z,5.35
2023-01-03T17:35:05.292Z,5.31
2023-01-03T17:37:57.825Z,5.30
2023-01-03T17:40:33.196Z,5.27
2023-01-03T17:43:03.280Z,5.23
2023-01-03T17:45:50.521Z,5.23
2023-01-03T17:48:37.668Z,5.23
2023-01-03T17:51:06.603Z,5.24
2023-01-03T17:53:35.204Z,5.25
2023-01-03T17:56:03.994Z,5.27
2023-01-03T17:58:37.132Z,5.29
2023-01-03T18:01:08.490Z,5.32
2023-01-03T18:03:38.852Z,5.34
2023-01-03T18:06:21.102Z,5.38
2023-01-03T18:08:50.598Z,5.41
2023-01-03T18:11:21.118Z,5.41
2023-01-03T18:13:49.987Z,5.43
2023-01-03T18:16:21.692Z,5.43
2023-01-03T18:18:51.154Z,5.44
2023-01-03T18:21:28.108Z,5.43
2023-01-03T18:24:07.059Z,5.45
2023-01-03T18:26:38.520Z,5.47
2023-01-03T18:29:08.364Z,5.50
2023-01-03T18:31:36.885Z,5.51
2023-01-03T18:34:06.594Z,5.53
2023-01-03T18:36:45.020Z,5.56
2023-01-03T18:39:18.009Z,5.60
2023-01-03T18:41:46.376Z,5.65
2023-01-03T18:44:34.515Z,5.67
2023-01-03T18:47:06.827Z,5.67
2023-01-03T18:49:35.328Z,5.69
2023-01-03T18:52:04.166Z,5.70
2023-01-03T18:54:38.014Z,5.70
2023-01-03T18:57:06.259Z,5.70
2023-01-03T18:59:35.471Z,5.69
2023-01-03T19:02:14.492Z,5.68
2023-01-03T19:04:49.200Z,5.68
2023-01-03T19:07:29.442Z,5.68
2023-01-03T19:09:59.536Z,5.66
2023-01-03T19:12:30.251Z,5.64
2023-01-03T19:14:59.231Z,5.63
2023-01-03T19:17:28.341Z,5.62
2023-01-03T19:19:56.990Z,5.65
2023-01-03T19:22:27.117Z,5.68
2023-01-03T19:25:00.203Z,5.71
2023-01-03T19:27:39.758Z,5.74
2023-01-03T19:30:21.612Z,5.79
2023-01-03T19:32:55.856Z,5.82
2023-01-03T19:35:27.481Z,5.85
2023-01-03T19:37:55.744Z,5.86
2023-01-03T19:40:29.555Z,5.85
2023-01-03T19:42:59.852Z,5.86
2023-01-03T19:45:40.520Z,5.87
2023-01-03T19:48:21.135Z,5.84
2023-01-03T19:50:53.227Z,5.79
2023-01-03T19:53:21.461Z,5.75
2023-01-03T19:55:52.344Z,5.73
2023-01-03T19:58:36.640Z,5.72
2023-01-03T20:01:05.236Z,5.72
2023-01-03T20:03:39.209Z,5.71
2023-01-03T20:06:12.154Z,5.68
2023-01-03T20:08:40.370Z,5.66
2023-01-03T20:11:18.472Z,5.67
2023-01-03T20:13:47.664Z,5.69
2023-01-03T20:16:16.713Z,5.71
2023-01-03T20:18:45.286Z,5.72
2023-01-03T20:21:22.523Z,5.76
2023-01-03T20:23:57.520Z,5.79
2023-01-03T20:26:29.568Z,5.78
2023-01-03T20:29:00.184Z,5.78
2023-01-03T20:31:30.170Z,5.77
2023-01-03T20:33:59.980Z,5.76
2023-01-03T20:36:33.659Z,5.76
2023-01-03T20:39:02.144Z,5.75
2023-01-03T20:41:36.927Z,5.73
2023-01-03T20:44:09.717Z,5.71
2023-01-03T20:46:39.723Z,5.70
2023-01-03T20:49:22.571Z,5.69
2023-01-03T20:51:52.306Z,5.67
2023-01-03T20:54:21.283Z,5.63
2023-01-03T20:56:49.375Z,5.60
2023-01-03T20:59:20.465Z,5.57
2023-01-03T21:01:49.694Z,5.55
2023-01-03T21:04:18.935Z,5.53
2023-01-03T21:06:48.992Z,5.50
2023-01-03T21:09:17.368Z,5.51
2023-01-03T21:11:47.263Z,5.52
2023-01-03T21:14:15.503Z,5.54
2023-01-03T21:16:49.123Z,5.56
2023-01-03T21:19:23.340Z,5.59
2023-01-03T21:21:54.482Z,5.59
2023-01-03T21:24:24.477Z,5.60
2023-01-03T21:26:52.944Z,5.59
2023-01-03T21:29:22.364Z,5.56
2023-01-03T21:31:50.987Z,5.53
2023-01-03T21:34:21.391Z,5.50
2023-01-03T21:36:49.840Z,5.48
2023-01-03T21:39:18.123Z,5.47
2023-01-03T21:42:04.904Z,5.45
2023-01-03T21:44:33.471Z,5.43
2023-01-03T21:47:02.450Z,5.39
2023-01-03T21:49:30.864Z,5.35
2023-01-03T21:51:58.853Z,5.33
2023-01-03T21:54:27.901Z,5.31
2023-01-03T21:56:56.693Z,5.28
2023-01-03T21:59:25.091Z,5.26
2023-01-03T22:02:12.556Z,5.24
2023-01-03T22:04:41.332Z,5.24
2023-01-03T22:07:10.251Z,5.25
2023-01-03T22:09:57.978Z,5.27
2023-01-03T22:12:26.481Z,5.28
2023-01-03T22:14:55.436Z,5.30
2023-01-03T22:17:23.597Z,5.30
2023-01-03T22:19:52.124Z,5.29
2023-01-03T22:22:20.774Z,5.27
2023-01-03T22:24:50.031Z,5.23
2023-01-03T22:27:20.253Z,5.20
2023-01-03T22:29:48.940Z,5.16
2023-01-03T22:32:22.788Z,5.08
2023-01-03T22:34:51.463Z,4.97
2023-01-03T22:37:20.188Z,4.87
2023-01-03T22:39:48.839Z,4.78
2023-01-03T22:42:19.679Z,4.67
2023-01-03T22:44:49.261Z,4.57
2023-01-03T22:47:18.012Z,4.46
2023-01-03T22:49:48.379Z,4.36
2023-01-03T22:52:18.012Z,4.26
2023-01-03T22:54:47.089Z,4.17
2023-01-03T22:57:16.605Z,4.08
2023-01-03T22:59:45.573Z,4.02
2023-01-03T23:02:14.637Z,3.99
2023-01-03T23:04:44.297Z,3.98
2023-01-03T23:07:12.996Z,3.95
2023-01-03T23:09:41.779Z,3.93
2023-01-03T23:12:29.266Z,3.90
2023-01-03T23:14:57.404Z,3.84
2023-01-03T23:17:44.634Z,3.80
2023-01-03T23:20:13.362Z,3.75
2023-01-03T23:22:43.847Z,3.68
2023-01-03T23:25:12.070Z,3.61
2023-01-03T23:27:41.066Z,3.54
2023-01-03T23:30:10.203Z,3.48
2023-01-03T23:32:39.264Z,3.41
2023-01-03T23:35:08.538Z,3.34
2023-01-03T23:37:37.489Z,3.27
2023-01-03T23:40:07.255Z,3.21
2023-01-03T23:42:35.899Z,3.15
2023-01-03T23:45:05.356Z,3.11
2023-01-03T23:47:33.952Z,3.07
2023-01-03T23:50:02.810Z,3.04
2023-01-03T23:52:33.533Z,3.01
2023-01-03T23:55:08.531Z,3.00
2023-01-03T23:57:41.545Z,3.00
